Time;durP1;ratioP1;P1;durP2;ratioP2;P2;SDS_P1;SDS_P2;PMS_P1;PMS_P2;Temp;Humidity;BMP_temperature;BMP_pressure;BME280_temperature;BME280_humidity;BME280_pressure;Samples;Min_cycle;Max_cycle;Signal;HPM_P1;HPM_P2
2021/07/05 00:01:13;;;;;;;0.50;0.30;;;;;;;17.12;100.00;99732.72;5073595;28;20519;-50
2021/07/05 00:03:39;;;;;;;0.40;0.20;;;;;;;17.08;100.00;99725.81;5073306;28;20450;-49
2021/07/05 00:06:06;;;;;;;0.40;0.20;;;;;;;17.06;100.00;99739.34;5068582;28;20942;-50
2021/07/05 00:08:33;;;;;;;0.40;0.30;;;;;;;17.05;100.00;99729.56;5073108;28;20875;-50
2021/07/05 00:10:59;;;;;;;0.40;0.30;;;;;;;16.90;100.00;99733.25;5073091;28;20494;-50
2021/07/05 00:13:26;;;;;;;0.40;0.20;;;;;;;16.88;100.00;99733.34;5073337;28;20450;-49
2021/07/05 00:15:54;;;;;;;0.40;0.27;;;;;;;16.92;100.00;99725.94;5073421;28;20488;-50
2021/07/05 00:18:21;;;;;;;0.40;0.20;;;;;;;17.24;100.00;99736.44;5073249;28;20937;-50
2021/07/05 00:20:48;;;;;;;0.40;0.20;;;;;;;16.94;100.00;99747.31;5073222;28;20469;-49
2021/07/05 00:23:15;;;;;;;0.40;0.20;;;;;;;16.82;100.00;99736.41;5072523;28;20490;-50
2021/07/05 00:25:43;;;;;;;0.40;0.20;;;;;;;16.85;100.00;99740.72;5064129;28;20447;-50
2021/07/05 00:28:10;;;;;;;0.40;0.20;;;;;;;16.96;100.00;99737.34;5069409;28;20453;-50
2021/07/05 00:30:38;;;;;;;0.40;0.20;;;;;;;16.90;100.00;99737.75;5072396;28;20505;-49
2021/07/05 00:33:05;;;;;;;0.40;0.20;;;;;;;16.87;100.00;99733.44;5072408;28;20428;-50
2021/07/05 00:35:33;;;;;;;0.40;0.20;;;;;;;16.71;100.00;99729.97;5062856;28;20542;-49
2021/07/05 00:38:00;;;;;;;0.40;0.20;;;;;;;16.53;100.00;99734.66;5069553;28;20503;-51
2021/07/05 00:40:27;;;;;;;0.40;0.20;;;;;;;16.67;100.00;99734.69;5073122;28;20474;-49
2021/07/05 00:42:55;;;;;;;0.40;0.20;;;;;;;16.75;100.00;99743.13;5073038;28;20461;-50
2021/07/05 00:45:24;;;;;;;0.40;0.20;;;;;;;16.71;100.00;99743.41;5072472;28;20466;-49
2021/07/05 00:47:50;;;;;;;0.40;0.20;;;;;;;16.82;100.00;99744.47;5072361;28;20935;-50
2021/07/05 00:50:19;;;;;;;0.40;0.20;;;;;;;16.79;100.00;99741.97;5072665;28;20446;-49
2021/07/05 00:52:48;;;;;;;0.40;0.20;;;;;;;16.82;100.00;99732.84;5072279;28;20497;-50
2021/07/05 00:55:15;;;;;;;0.40;0.20;;;;;;;16.97;100.00;99731.03;5072353;28;20979;-50
2021/07/05 00:57:42;;;;;;;0.40;0.20;;;;;;;16.82;100.00;99732.84;5072594;28;20450;-50
2021/07/05 01:00:12;;;;;;;0.40;0.20;;;;;;;16.73;100.00;99725.41;5072057;28;20446;-49
2021/07/05 01:02:39;;;;;;;0.40;0.20;;;;;;;16.71;100.00;99728.16;5072559;28;20446;-49
2021/07/05 01:05:08;;;;;;;0.40;0.20;;;;;;;16.74;100.00;99717.25;5065501;28;20450;-50
2021/07/05 01:07:35;;;;;;;0.50;0.30;;;;;;;16.67;100.00;99707.84;5072328;28;20450;-50
2021/07/05 01:10:03;;;;;;;0.90;0.90;;;;;;;16.67;100.00;99699.78;5072136;28;20495;-50
2021/07/05 01:12:30;;;;;;;0.40;0.20;;;;;;;16.63;100.00;99706.28;5058813;28;20539;-49
2021/07/05 01:14:56;;;;;;;0.50;0.37;;;;;;;16.80;100.00;99708.78;5072224;28;20458;-50
2021/07/05 01:17:24;;;;;;;0.40;0.20;;;;;;;16.69;100.00;99710.44;5072134;28;20445;-51
2021/07/05 01:19:52;;;;;;;0.40;0.20;;;;;;;16.79;100.00;99715.13;5072335;28;20483;-50
2021/07/05 01:22:19;;;;;;;0.40;0.20;;;;;;;16.81;100.00;99705.16;5071678;28;20493;-50
2021/07/05 01:24:48;;;;;;;0.40;0.20;;;;;;;16.58;100.00;99697.66;5070900;28;20536;-50
2021/07/05 01:27:16;;;;;;;0.40;0.20;;;;;;;16.66;100.00;99698.03;5060403;28;20489;-51
2021/07/05 01:29:42;;;;;;;0.40;0.20;;;;;;;16.80;100.00;99694.50;5072177;28;20471;-50
2021/07/05 01:32:10;;;;;;;0.40;0.20;;;;;;;16.76;100.00;99693.84;5071248;28;20535;-50
2021/07/05 01:34:38;;;;;;;0.40;0.27;;;;;;;16.69;100.00;99681.78;5071793;28;20450;-49
2021/07/05 01:37:06;;;;;;;0.40;0.20;;;;;;;16.73;100.00;99686.00;5072297;28;20818;-50
2021/07/05 01:39:34;;;;;;;0.40;0.20;;;;;;;16.89;100.00;99693.94;5071885;28;20454;-50
2021/07/05 01:42:01;;;;;;;0.40;0.20;;;;;;;16.88;100.00;99692.22;5071473;28;20466;-50
2021/07/05 01:44:28;;;;;;;0.40;0.20;;;;;;;16.98;100.00;99690.63;5071738;28;20504;-50
2021/07/05 01:46:54;;;;;;;0.40;0.20;;;;;;;16.82;100.00;99704.19;5072195;28;20449;-50
2021/07/05 01:49:21;;;;;;;0.40;0.20;;;;;;;16.91;100.00;99700.06;5071927;28;20442;-49
2021/07/05 01:51:47;;;;;;;0.40;0.20;;;;;;;16.77;100.00;99692.88;5071679;28;20493;-49
2021/07/05 01:54:15;;;;;;;0.40;0.20;;;;;;;16.71;100.00;99687.91;5071633;28;20446;-50
2021/07/05 01:56:44;;;;;;;0.40;0.30;;;;;;;16.63;100.00;99670.53;5071902;28;20951;-49
2021/07/05 01:59:30;;;;;;;0.40;0.20;;;;;;;16.65;100.00;99684.72;5071673;28;20480;-50
2021/07/05 02:01:57;;;;;;;0.40;0.20;;;;;;;16.58;100.00;99687.81;5071503;28;20474;-49
2021/07/05 02:04:25;;;;;;;0.40;0.20;;;;;;;16.54;100.00;99688.94;5071149;28;20500;-50
2021/07/05 02:06:51;;;;;;;0.40;0.20;;;;;;;16.61;100.00;99693.94;5065518;28;20449;-50
2021/07/05 02:09:18;;;;;;;0.40;0.20;;;;;;;16.74;100.00;99690.41;5071586;28;20943;-50
2021/07/05 02:11:45;;;;;;;0.40;0.20;;;;;;;16.77;100.00;99681.28;5071503;28;20489;-49
2021/07/05 02:14:12;;;;;;;0.40;0.20;;;;;;;16.86;100.00;99680.72;5072057;28;20457;-51
2021/07/05 02:16:38;;;;;;;0.40;0.20;;;;;;;16.79;100.00;99674.88;5071299;28;20959;-51
2021/07/05 02:19:05;;;;;;;0.40;0.20;;;;;;;17.01;100.00;99682.41;5075016;28;20499;-51
2021/07/05 02:21:32;;;;;;;0.40;0.20;;;;;;;17.02;100.00;99676.06;5074827;28;20469;-51
2021/07/05 02:23:58;;;;;;;0.40;0.20;;;;;;;17.11;100.00;99672.78;5075912;28;20503;-51
2021/07/05 02:26:25;;;;;;;0.40;0.20;;;;;;;17.13;100.00;99670.88;5061794;28;20500;-51
2021/07/05 02:28:51;;;;;;;0.40;0.20;;;;;;;17.15;100.00;99662.72;5075123;28;20938;-50
2021/07/05 02:31:18;;;;;;;0.40;0.20;;;;;;;17.23;100.00;99659.50;5075007;28;20889;-51
2021/07/05 02:33:45;;;;;;;0.40;0.20;;;;;;;17.25;100.00;99658.44;5075368;28;20495;-50
2021/07/05 02:36:13;;;;;;;0.40;0.20;;;;;;;17.41;100.00;99656.47;5073647;28;20489;-51
2021/07/05 02:38:40;;;;;;;0.40;0.20;;;;;;;17.34;100.00;99656.97;5074920;28;20449;-50
2021/07/05 02:41:07;;;;;;;0.40;0.20;;;;;;;17.36;100.00;99660.41;5074991;28;20469;-51
2021/07/05 02:43:34;;;;;;;0.40;0.20;;;;;;;17.38;100.00;99650.41;5074746;28;20950;-50
2021/07/05 02:46:01;;;;;;;0.40;0.20;;;;;;;17.53;100.00;99644.00;5074605;28;20496;-51
2021/07/05 02:48:30;;;;;;;0.40;0.20;;;;;;;17.63;100.00;99641.56;5074701;28;20492;-50
2021/07/05 02:51:00;;;;;;;0.40;0.20;;;;;;;17.53;100.00;99656.59;5074260;28;20462;-51
2021/07/05 02:53:27;;;;;;;0.40;0.20;;;;;;;17.76;100.00;99648.72;5074822;28;20481;-51
2021/07/05 02:55:54;;;;;;;0.40;0.20;;;;;;;17.74;100.00;99649.81;5074796;28;20961;-52
2021/07/05 02:58:21;;;;;;;0.40;0.20;;;;;;;17.68;100.00;99640.34;5074650;28;20482;-50
2021/07/05 03:00:51;;;;;;;0.40;0.20;;;;;;;17.62;100.00;99629.09;5074401;28;20626;-50
2021/07/05 03:03:19;;;;;;;0.40;0.30;;;;;;;17.59;100.00;99634.69;5074636;28;20529;-51
2021/07/05 03:05:46;;;;;;;0.40;0.20;;;;;;;17.59;100.00;99635.56;5068393;28;20453;-51
2021/07/05 03:08:13;;;;;;;0.40;0.20;;;;;;;17.53;100.00;99621.66;5074349;28;20476;-51
2021/07/05 03:10:41;;;;;;;0.40;0.20;;;;;;;17.62;100.00;99629.97;5074330;28;20495;-51
2021/07/05 03:13:13;;;;;;;0.40;0.20;;;;;;;17.64;100.00;99630.72;5074145;28;20572;-51
2021/07/05 03:15:41;;;;;;;0.40;0.20;;;;;;;17.63;100.00;99628.13;5061260;28;20453;-51
2021/07/05 03:18:08;;;;;;;0.40;0.23;;;;;;;17.60;100.00;99631.91;5073211;28;20927;-51
2021/07/05 03:20:38;;;;;;;0.40;0.20;;;;;;;17.63;100.00;99637.06;5074187;28;20474;-50
2021/07/05 03:23:06;;;;;;;0.40;0.20;;;;;;;17.52;100.00;99636.91;5073883;28;20450;-50
2021/07/05 03:25:34;;;;;;;0.40;0.30;;;;;;;17.55;100.00;99641.25;5066202;28;20458;-50
2021/07/05 03:28:02;;;;;;;1.17;1.07;;;;;;;17.56;100.00;99651.88;5068901;28;20449;-58
2021/07/05 03:30:29;;;;;;;0.40;0.20;;;;;;;17.63;100.00;99644.25;5074118;28;20469;-51
2021/07/05 03:32:57;;;;;;;0.40;0.20;;;;;;;17.91;100.00;99651.31;5073930;28;20569;-50
2021/07/05 03:35:24;;;;;;;0.40;0.30;;;;;;;17.94;100.00;99649.28;5065042;28;20450;-51
2021/07/05 03:37:52;;;;;;;0.40;0.20;;;;;;;17.65;100.00;99639.63;5068342;28;20457;-51
2021/07/05 03:40:22;;;;;;;0.40;0.20;;;;;;;17.58;100.00;99643.72;5073864;28;20806;-51
2021/07/05 03:42:49;;;;;;;0.40;0.20;;;;;;;17.81;100.00;99656.47;5073740;28;20445;-51
2021/07/05 03:45:18;;;;;;;0.40;0.20;;;;;;;17.66;100.00;99652.97;5073622;28;20457;-50
2021/07/05 03:47:46;;;;;;;0.40;0.20;;;;;;;17.75;100.00;99648.84;5073697;28;20450;-51
2021/07/05 03:50:14;;;;;;;0.40;0.20;;;;;;;17.78;100.00;99648.63;5073631;28;20512;-51
2021/07/05 03:52:41;;;;;;;0.40;0.20;;;;;;;17.68;100.00;99642.09;5073539;28;20543;-51
2021/07/05 03:55:10;;;;;;;0.60;0.40;;;;;;;17.88;100.00;99644.34;5073417;28;20803;-51
2021/07/05 03:57:38;;;;;;;0.40;0.20;;;;;;;17.93;100.00;99644.88;5073674;28;20453;-51
2021/07/05 04:00:08;;;;;;;0.40;0.20;;;;;;;17.76;100.00;99653.25;5074311;28;20457;-51
2021/07/05 04:02:35;;;;;;;0.40;0.20;;;;;;;17.70;100.00;99656.38;5074301;28;20446;-51
2021/07/05 04:05:02;;;;;;;0.40;0.20;;;;;;;17.66;100.00;99661.03;5068050;28;20859;-52
2021/07/05 04:07:30;;;;;;;0.40;0.20;;;;;;;17.61;100.00;99659.63;5073247;28;21036;-50
2021/07/05 04:09:57;;;;;;;0.40;0.20;;;;;;;17.57;100.00;99668.88;5073584;28;20511;-51
2021/07/05 04:12:24;;;;;;;0.40;0.20;;;;;;;17.56;100.00;99667.16;5073387;28;20489;-51
2021/07/05 04:14:51;;;;;;;0.40;0.20;;;;;;;17.57;100.00;99666.19;5073621;28;20497;-52
2021/07/05 04:17:18;;;;;;;0.40;0.20;;;;;;;17.55;100.00;99670.81;5073511;28;20446;-51
2021/07/05 04:19:46;;;;;;;0.40;0.20;;;;;;;17.55;100.00;99666.28;5073100;28;20826;-51
2021/07/05 04:22:17;;;;;;;0.50;0.40;;;;;;;17.64;100.00;99659.41;5073083;28;20489;-50
2021/07/05 04:24:45;;;;;;;0.40;0.20;;;;;;;17.63;100.00;99663.94;5071954;28;20445;-50
2021/07/05 04:27:14;;;;;;;0.40;0.30;;;;;;;17.75;100.00;99662.28;5061423;28;20495;-51
2021/07/05 04:29:42;;;;;;;0.40;0.20;;;;;;;18.02;100.00;99670.28;5073002;28;20477;-51
2021/07/05 04:32:09;;;;;;;0.40;0.20;;;;;;;18.11;100.00;99668.78;5072620;28;20543;-50
2021/07/05 04:34:47;;;;;;;0.40;0.20;;;;;;;18.00;100.00;99672.22;5072798;28;20504;-51
2021/07/05 04:37:14;;;;;;;0.40;0.20;;;;;;;17.89;100.00;99667.56;5072968;28;20480;-50
2021/07/05 04:39:41;;;;;;;0.43;0.27;;;;;;;17.78;100.00;99656.69;5073063;28;20450;-50
2021/07/05 04:42:08;;;;;;;0.73;0.73;;;;;;;17.93;100.00;99654.75;5072711;28;20470;-50
2021/07/05 04:44:35;;;;;;;0.40;0.20;;;;;;;17.90;100.00;99653.16;5072480;28;20996;-50
2021/07/05 04:47:03;;;;;;;0.40;0.20;;;;;;;17.91;100.00;99652.19;5072826;28;20472;-51
2021/07/05 04:49:30;;;;;;;0.40;0.20;;;;;;;17.94;100.00;99656.50;5072556;28;20450;-50
2021/07/05 04:51:57;;;;;;;0.40;0.20;;;;;;;17.93;100.00;99655.63;5072451;28;20515;-50
2021/07/05 04:54:24;;;;;;;0.40;0.20;;;;;;;17.95;100.00;99651.00;5072554;28;20450;-50
2021/07/05 04:56:50;;;;;;;0.40;0.30;;;;;;;17.91;100.00;99651.31;5072701;28;20499;-50
2021/07/05 04:59:17;;;;;;;0.40;0.30;;;;;;;17.92;100.00;99653.91;5072819;28;20454;-50
2021/07/05 05:01:45;;;;;;;0.40;0.20;;;;;;;17.90;100.00;99663.06;5072461;28;20470;-52
2021/07/05 05:04:14;;;;;;;0.40;0.20;;;;;;;18.06;100.00;99666.41;5072393;28;20457;-51
2021/07/05 05:06:41;;;;;;;0.40;0.20;;;;;;;18.01;100.00;99665.88;5064596;28;20446;-50
2021/07/05 05:09:08;;;;;;;0.40;0.20;;;;;;;18.02;100.00;99655.00;5072173;28;20452;-51
2021/07/05 05:11:34;;;;;;;0.40;0.20;;;;;;;18.14;100.00;99658.66;5072385;28;20453;-50
2021/07/05 05:14:01;;;;;;;0.40;0.20;;;;;;;18.15;100.00;99652.31;5072090;28;20886;-50
2021/07/05 05:16:28;;;;;;;0.40;0.20;;;;;;;18.11;100.00;99650.81;5072234;28;20480;-51
2021/07/05 05:18:55;;;;;;;0.40;0.30;;;;;;;18.22;100.00;99650.91;5072437;28;20428;-50
2021/07/05 05:21:22;;;;;;;0.40;0.30;;;;;;;18.23;100.00;99655.34;5072298;28;20886;-51
2021/07/05 05:23:48;;;;;;;0.40;0.20;;;;;;;18.24;100.00;99656.19;5072115;28;20448;-50
2021/07/05 05:26:15;;;;;;;2.63;0.63;;;;;;;18.34;100.00;99657.25;5057397;28;21005;-50
2021/07/05 05:28:42;;;;;;;0.40;0.20;;;;;;;18.44;100.00;99652.94;5072307;28;20478;-50
2021/07/05 05:31:09;;;;;;;0.40;0.30;;;;;;;18.53;100.00;99655.00;5071681;28;20474;-49
2021/07/05 05:33:35;;;;;;;0.40;0.20;;;;;;;18.57;100.00;99652.94;5071699;28;20566;-50
2021/07/05 05:36:02;;;;;;;0.40;0.20;;;;;;;18.63;100.00;99663.25;5058703;28;20455;-49
2021/07/05 05:38:29;;;;;;;0.43;0.43;;;;;;;18.67;100.00;99659.41;5073163;28;20864;-50
2021/07/05 05:40:58;;;;;;;0.40;0.20;;;;;;;18.69;100.00;99664.69;5071924;28;20469;-49
2021/07/05 05:43:25;;;;;;;0.40;0.20;;;;;;;18.66;100.00;99663.09;5072472;28;20519;-50
2021/07/05 05:45:51;;;;;;;0.40;0.20;;;;;;;18.57;100.00;99661.00;5071889;28;20507;-50
2021/07/05 05:48:18;;;;;;;0.40;0.20;;;;;;;18.67;100.00;99664.81;5072193;28;20446;-50
2021/07/05 05:50:45;;;;;;;0.40;0.20;;;;;;;18.72;100.00;99665.31;5071940;28;20501;-50
2021/07/05 05:53:12;;;;;;;0.40;0.20;;;;;;;18.62;100.00;99664.22;5073648;28;20489;-50
2021/07/05 05:55:43;;;;;;;0.40;0.20;;;;;;;18.67;100.00;99670.19;5075995;28;20947;-50
2021/07/05 05:58:09;;;;;;;0.40;0.30;;;;;;;18.68;100.00;99673.75;5076023;28;20442;-50
2021/07/05 06:00:36;;;;;;;0.40;0.20;;;;;;;18.64;100.00;99671.28;5076001;28;20523;-49
2021/07/05 06:03:03;;;;;;;0.40;0.20;;;;;;;18.61;100.00;99682.19;5076050;28;20446;-50
2021/07/05 06:05:29;;;;;;;0.40;0.20;;;;;;;18.62;100.00;99677.69;5068372;28;20866;-50
2021/07/05 06:07:56;;;;;;;0.40;0.20;;;;;;;18.60;100.00;99679.63;5075699;28;20452;-51
2021/07/05 06:10:24;;;;;;;0.40;0.20;;;;;;;18.69;100.00;99675.47;5075599;28;20507;-51
2021/07/05 06:12:53;;;;;;;0.40;0.20;;;;;;;18.65;100.00;99682.91;5074551;28;20531;-51
2021/07/05 06:15:22;;;;;;;0.40;0.20;;;;;;;18.64;100.00;99690.13;5075735;28;20482;-51
2021/07/05 06:17:49;;;;;;;0.40;0.20;;;;;;;18.72;100.00;99681.47;5075782;28;20446;-52
2021/07/05 06:20:16;;;;;;;0.40;0.20;;;;;;;18.77;100.00;99670.38;5075375;28;20479;-51
2021/07/05 06:23:06;;;;;;;0.40;0.20;;;;;;;18.78;100.00;99677.50;5075347;28;20445;-51
2021/07/05 06:25:33;;;;;;;0.40;0.20;;;;;;;18.81;100.00;99685.34;5067936;28;20793;-51
2021/07/05 06:27:59;;;;;;;0.40;0.20;;;;;;;18.90;100.00;99688.22;5069853;28;20817;-50
2021/07/05 06:30:26;;;;;;;0.40;0.20;;;;;;;18.88;100.00;99679.38;5075440;28;20531;-51
2021/07/05 06:32:53;;;;;;;0.40;0.20;;;;;;;18.90;100.00;99673.88;5074982;28;20485;-50
2021/07/05 06:35:20;;;;;;;0.40;0.20;;;;;;;19.04;100.00;99680.97;5075138;28;20450;-51
2021/07/05 06:37:47;;;;;;;0.40;0.20;;;;;;;19.24;100.00;99675.84;5075034;28;20452;-51
2021/07/05 06:40:16;;;;;;;0.40;0.20;;;;;;;19.02;100.00;99691.00;5075429;28;20450;-51
2021/07/05 06:42:42;;;;;;;0.40;0.20;;;;;;;19.04;100.00;99687.22;5075231;28;20496;-51
2021/07/05 06:45:09;;;;;;;0.40;0.30;;;;;;;19.01;100.00;99691.97;5075455;28;20465;-51
2021/07/05 06:47:36;;;;;;;0.40;0.20;;;;;;;19.21;100.00;99691.38;5074330;28;20446;-51
2021/07/05 06:50:05;;;;;;;0.40;0.20;;;;;;;19.27;100.00;99690.06;5074466;28;20425;-51
2021/07/05 06:52:33;;;;;;;0.40;0.20;;;;;;;19.24;100.00;99693.84;5073416;28;20485;-51
2021/07/05 06:55:01;;;;;;;0.40;0.20;;;;;;;19.27;100.00;99690.91;5073800;28;20507;-51
2021/07/05 06:57:31;;;;;;;0.40;0.20;;;;;;;19.53;100.00;99694.38;5073829;28;20496;-51
2021/07/05 07:00:00;;;;;;;0.50;0.40;;;;;;;19.24;100.00;99692.00;5073939;28;20446;-51
2021/07/05 07:02:26;;;;;;;0.40;0.20;;;;;;;19.29;100.00;99691.66;5073425;28;20470;-51
2021/07/05 07:04:53;;;;;;;0.40;0.20;;;;;;;19.27;100.00;99684.66;5068425;28;20444;-51
2021/07/05 07:07:20;;;;;;;0.40;0.20;;;;;;;19.25;100.00;99690.16;5070647;28;20450;-50
2021/07/05 07:09:47;;;;;;;0.60;0.60;;;;;;;19.33;100.00;99687.78;5074037;28;20477;-51
2021/07/05 07:12:14;;;;;;;0.40;0.20;;;;;;;19.35;100.00;99684.97;5073389;28;20469;-51
2021/07/05 07:14:40;;;;;;;0.40;0.20;;;;;;;19.25;100.00;99695.56;5073238;28;20454;-51
2021/07/05 07:17:13;;;;;;;0.40;0.20;;;;;;;19.44;100.00;99695.91;5073091;28;20450;-50
2021/07/05 07:19:40;;;;;;;0.40;0.20;;;;;;;19.35;100.00;99693.91;5072127;28;20924;-50
2021/07/05 07:22:06;;;;;;;0.40;0.20;;;;;;;19.47;100.00;99693.00;5073086;28;20466;-50
2021/07/05 07:24:33;;;;;;;0.40;0.20;;;;;;;19.50;100.00;99683.81;5073116;28;20978;-50
2021/07/05 07:27:00;;;;;;;0.40;0.20;;;;;;;19.69;100.00;99686.00;5060862;28;20844;-52
2021/07/05 07:29:27;;;;;;;0.40;0.20;;;;;;;19.68;100.00;99682.44;5074154;28;20503;-52
2021/07/05 07:31:54;;;;;;;0.40;0.30;;;;;;;19.96;100.00;99686.59;5073914;28;20830;-52
2021/07/05 07:34:21;;;;;;;0.40;0.20;;;;;;;19.84;100.00;99687.53;5073165;28;20493;-51
2021/07/05 07:36:48;;;;;;;0.40;0.20;;;;;;;19.73;100.00;99693.72;5061117;28;20513;-51
2021/07/05 07:39:24;;;;;;;0.40;0.20;;;;;;;19.79;100.00;99687.88;5073348;28;20454;-51
2021/07/05 07:41:51;;;;;;;0.40;0.20;;;;;;;19.83;100.00;99685.81;5072962;28;20472;-52
2021/07/05 07:44:17;;;;;;;0.40;0.20;;;;;;;19.67;100.00;99680.72;5072713;28;20448;-52
2021/07/05 07:46:44;;;;;;;0.50;0.40;;;;;;;19.61;100.00;99688.44;5034636;28;1168869;-53
2021/07/05 07:49:11;;;;;;;0.40;0.30;;;;;;;19.61;100.00;99688.44;5074383;28;20626;-52
2021/07/05 07:51:39;;;;;;;0.40;0.20;;;;;;;19.91;100.00;99694.19;5073324;28;20465;-53
2021/07/05 07:54:06;;;;;;;0.40;0.20;;;;;;;19.87;100.00;99683.72;5073694;28;20487;-52
2021/07/05 07:56:34;;;;;;;0.57;0.57;;;;;;;20.22;100.00;99681.00;5073752;28;20461;-51
2021/07/05 07:59:02;;;;;;;0.40;0.20;;;;;;;20.45;100.00;99681.94;5073504;28;20478;-52
2021/07/05 08:01:29;;;;;;;0.40;0.20;;;;;;;20.37;100.00;99680.66;5073809;28;20440;-52
2021/07/05 08:03:56;;;;;;;0.40;0.20;;;;;;;20.59;100.00;99673.59;5073573;28;20417;-52
2021/07/05 08:06:24;;;;;;;0.40;0.20;;;;;;;20.39;100.00;99673.28;5067550;28;20425;-52
2021/07/05 08:08:55;;;;;;;0.40;0.20;;;;;;;20.47;100.00;99663.78;5073211;28;20450;-52
2021/07/05 08:11:23;;;;;;;0.40;0.20;;;;;;;20.57;100.00;99660.22;5073369;28;20494;-52
2021/07/05 08:13:49;;;;;;;0.47;0.27;;;;;;;20.64;100.00;99656.03;5073532;28;20460;-52
2021/07/05 08:16:16;;;;;;;0.40;0.20;;;;;;;20.80;100.00;99649.41;5073169;28;20445;-52
2021/07/05 08:18:43;;;;;;;0.40;0.20;;;;;;;21.26;100.00;99669.00;5073252;28;20453;-52
2021/07/05 08:21:10;;;;;;;0.40;0.20;;;;;;;21.38;98.17;99672.53;5072474;28;20473;-52
2021/07/05 08:23:36;;;;;;;0.40;0.20;;;;;;;21.22;93.67;99674.75;5072944;28;20438;-52
2021/07/05 08:26:04;;;;;;;0.97;0.97;;;;;;;21.13;92.55;99660.16;5061623;28;20425;-52
2021/07/05 08:28:30;;;;;;;0.40;0.20;;;;;;;21.62;92.43;99657.94;5072838;28;20450;-53
2021/07/05 08:30:58;;;;;;;0.40;0.20;;;;;;;21.67;91.51;99666.53;5073129;28;20490;-52
2021/07/05 08:33:25;;;;;;;0.40;0.30;;;;;;;21.92;90.88;99660.72;5072585;28;20517;-52
2021/07/05 08:35:52;;;;;;;0.40;0.20;;;;;;;21.69;91.95;99656.44;5060517;28;20479;-52
2021/07/05 08:38:19;;;;;;;0.40;0.20;;;;;;;22.13;93.64;99661.63;5059527;28;20428;-52
2021/07/05 08:40:46;;;;;;;0.40;0.30;;;;;;;21.94;94.33;99658.78;5072698;28;20535;-52
2021/07/05 08:43:13;;;;;;;0.40;0.20;;;;;;;22.30;95.06;99659.31;5073138;28;20848;-52
2021/07/05 08:45:43;;;;;;;0.40;0.20;;;;;;;22.42;92.56;99659.09;5072766;28;20457;-52
2021/07/05 08:48:13;;;;;;;0.40;0.20;;;;;;;22.12;91.74;99661.78;5072839;28;21012;-52
2021/07/05 08:50:41;;;;;;;0.40;0.20;;;;;;;22.22;92.03;99656.44;5072641;28;20441;-52
2021/07/05 08:53:08;;;;;;;0.43;0.30;;;;;;;21.90;92.13;99660.00;5057605;28;20490;-52
2021/07/05 08:55:34;;;;;;;0.40;0.20;;;;;;;21.98;93.25;99662.94;5067601;28;20423;-52
2021/07/05 08:58:01;;;;;;;0.40;0.20;;;;;;;21.29;94.81;99663.34;5072545;28;20450;-52
2021/07/05 09:00:31;;;;;;;0.40;0.20;;;;;;;21.45;92.82;99657.50;5072386;28;20445;-52
2021/07/05 09:03:00;;;;;;;0.50;0.40;;;;;;;21.41;92.29;99650.66;5071300;28;20428;-52
2021/07/05 09:05:26;;;;;;;0.40;0.20;;;;;;;21.64;91.93;99650.53;5068910;28;20462;-52
2021/07/05 09:07:55;;;;;;;0.40;0.30;;;;;;;21.63;93.59;99648.81;5060669;28;20447;-52
2021/07/05 09:10:23;;;;;;;0.40;0.30;;;;;;;21.66;91.66;99654.00;5069546;28;20450;-52
2021/07/05 09:13:10;;;;;;;0.40;0.20;;;;;;;21.76;91.60;99652.22;5072245;28;20997;-52
2021/07/05 09:15:43;;;;;;;0.40;0.20;;;;;;;21.54;92.47;99648.63;5071298;28;20921;-52
2021/07/05 09:18:32;;;;;;;0.40;0.20;;;;;;;21.24;92.75;99649.34;5072362;28;20445;-52
2021/07/05 09:21:21;;;;;;;0.40;0.20;;;;;;;21.02;95.13;99652.06;5072326;28;20444;-52
2021/07/05 09:24:01;;;;;;;0.40;0.20;;;;;;;20.93;94.46;99648.28;5072154;28;20438;-51
2021/07/05 09:26:36;;;;;;;0.40;0.20;;;;;;;20.98;96.99;99640.66;5058602;28;20425;-52
2021/07/05 09:29:11;;;;;;;0.40;0.20;;;;;;;21.03;96.27;99640.28;5072328;28;20946;-52
2021/07/05 09:31:44;;;;;;;0.40;0.20;;;;;;;20.97;97.46;99638.94;5072175;28;20473;-52
2021/07/05 09:34:19;;;;;;;0.40;0.20;;;;;;;20.74;97.50;99637.25;5072300;28;20531;-52
2021/07/05 09:36:47;;;;;;;0.40;0.20;;;;;;;20.81;95.71;99640.31;5065283;28;20419;-52
2021/07/05 09:39:17;;;;;;;0.40;0.30;;;;;;;20.88;96.70;99634.28;5072589;28;20435;-52
2021/07/05 09:41:45;;;;;;;0.40;0.20;;;;;;;20.88;96.42;99647.78;5072235;28;20470;-53
2021/07/05 09:44:18;;;;;;;0.40;0.30;;;;;;;21.00;97.87;99644.09;5072329;28;20420;-53
2021/07/05 09:46:55;;;;;;;0.40;0.20;;;;;;;21.06;96.49;99660.78;5072588;28;20929;-52
2021/07/05 09:49:32;;;;;;;0.47;0.30;;;;;;;20.96;96.22;99656.13;5072020;28;20441;-52
2021/07/05 09:52:25;;;;;;;0.40;0.20;;;;;;;21.14;96.75;99655.63;5072137;28;20515;-52
2021/07/05 09:54:56;;;;;;;0.40;0.30;;;;;;;21.08;96.12;99670.47;5072212;28;20969;-52
2021/07/05 09:57:39;;;;;;;0.47;0.40;;;;;;;21.00;96.30;99660.31;5071774;28;20459;-52
2021/07/05 10:00:06;;;;;;;0.40;0.20;;;;;;;21.02;95.46;99659.31;5071909;28;20441;-52
2021/07/05 10:02:33;;;;;;;0.40;0.20;;;;;;;21.04;94.70;99658.22;5071903;28;20459;-52
2021/07/05 10:05:17;;;;;;;0.40;0.20;;;;;;;21.02;94.34;99653.91;5072073;28;20445;-52
2021/07/05 10:07:57;;;;;;;0.40;0.20;;;;;;;20.94;94.93;99662.63;5072108;28;20466;-52
2021/07/05 10:10:24;;;;;;;0.40;0.20;;;;;;;20.81;94.91;99659.22;5071990;28;20427;-52
2021/07/05 10:12:54;;;;;;;0.50;0.40;;;;;;;20.63;96.27;99648.91;5072161;28;20499;-51
2021/07/05 10:15:22;;;;;;;0.40;0.20;;;;;;;20.69;95.77;99652.94;5071997;28;20468;-52
2021/07/05 10:17:51;;;;;;;0.40;0.30;;;;;;;20.72;96.20;99657.28;5070887;28;20952;-52
2021/07/05 10:20:22;;;;;;;0.40;0.20;;;;;;;20.61;96.59;99645.50;5071504;28;20445;-52
2021/07/05 10:22:52;;;;;;;0.70;0.70;;;;;;;20.86;95.58;99641.66;5071493;28;20445;-52
2021/07/05 10:25:21;;;;;;;0.40;0.20;;;;;;;20.77;96.78;99658.59;5065835;28;20465;-52
2021/07/05 10:27:48;;;;;;;0.87;0.87;;;;;;;20.79;98.10;99653.94;5064467;28;20488;-52
2021/07/05 10:30:16;;;;;;;0.40;0.20;;;;;;;20.68;100.00;99660.19;5071572;28;20446;-52
2021/07/05 10:32:45;;;;;;;0.40;0.20;;;;;;;20.38;100.00;99660.78;5067737;28;20799;-52
2021/07/05 10:35:17;;;;;;;0.40;0.20;;;;;;;20.13;100.00;99671.78;5051358;28;20461;-52
2021/07/05 10:38:06;;;;;;;0.40;0.20;;;;;;;20.55;100.00;99664.88;5051606;28;20413;-52
2021/07/05 10:40:39;;;;;;;0.40;0.20;;;;;;;20.34;100.00;99670.13;5054436;28;20517;-52
2021/07/05 10:43:11;;;;;;;0.40;0.30;;;;;;;20.21;100.00;99672.06;5055226;28;20443;-52
2021/07/05 10:45:48;;;;;;;0.40;0.20;;;;;;;20.20;100.00;99677.56;5054860;28;20462;-52
2021/07/05 10:48:42;;;;;;;0.40;0.20;;;;;;;19.70;100.00;99675.09;5055385;28;20512;-52
2021/07/05 10:51:11;;;;;;;0.40;0.20;;;;;;;19.79;100.00;99671.72;5054816;28;20544;-52
2021/07/05 10:53:37;;;;;;;0.40;0.20;;;;;;;19.74;100.00;99671.22;5054902;28;20460;-52
2021/07/05 10:56:26;;;;;;;0.40;0.20;;;;;;;19.82;100.00;99673.31;5054761;28;20480;-52
2021/07/05 10:58:52;;;;;;;0.40;0.20;;;;;;;20.17;100.00;99659.78;5054818;28;20827;-52
2021/07/05 11:01:43;;;;;;;0.40;0.20;;;;;;;20.41;100.00;99665.06;5054865;28;20521;-52
2021/07/05 11:04:20;;;;;;;0.40;0.20;;;;;;;20.72;100.00;99657.28;5054986;28;20492;-52
2021/07/05 11:06:49;;;;;;;0.40;0.20;;;;;;;20.62;100.00;99654.44;5053465;28;20447;-51
2021/07/05 11:09:20;;;;;;;0.40;0.20;;;;;;;20.48;100.00;99655.56;5054926;28;20451;-50
2021/07/05 11:11:51;;;;;;;0.40;0.30;;;;;;;20.57;100.00;99654.81;5054833;28;20462;-51
2021/07/05 11:14:20;;;;;;;0.40;0.20;;;;;;;20.60;100.00;99654.56;5054909;28;20494;-51
2021/07/05 11:17:22;;;;;;;0.40;0.20;;;;;;;20.93;100.00;99645.56;5054483;28;20454;-52
2021/07/05 11:19:52;;;;;;;0.40;0.20;;;;;;;21.27;100.00;99648.25;5054503;28;20467;-52
2021/07/05 11:22:27;;;;;;;0.40;0.30;;;;;;;21.47;100.00;99642.00;5054568;28;20493;-52
2021/07/05 11:24:55;;;;;;;0.40;0.20;;;;;;;21.58;100.00;99638.41;5068118;28;20469;-52
2021/07/05 11:27:24;;;;;;;0.40;0.20;;;;;;;21.40;100.00;99639.97;5063689;28;20787;-52
2021/07/05 11:29:52;;;;;;;0.40;0.20;;;;;;;21.09;100.00;99634.34;5074371;28;20939;-52
2021/07/05 11:32:42;;;;;;;0.40;0.20;;;;;;;20.90;100.00;99624.22;5071063;28;21056;-52
2021/07/05 11:35:27;;;;;;;0.40;0.20;;;;;;;20.73;100.00;99624.75;5074100;28;20460;-51